Caledonia, North Dakota
Current Conditions -  °F | °C
As of 12:34 PM on Thursday 30 Oct 2014 (Local Time) from KCKN Reporting Station
Overcast Overcast  
Wind Chill: 26°   Ceiling: 2700
Heat Index: 37°   Visibility: 10mi
Dew Point: 30°   Wind: 23mph
Humidity: 75%   Direction: 360°N
Pressure: 30.3"   Gusts: NA
Location:  47.46°N, 96.88°W
Report Text: KCKN 301734Z AUTO 36020KT 10SM OVC027 03/M01 A3030 RMK AO2
Loading
Personal Weather Stations






























Interactive Weather Map
Tropical Storm Tracking
New forecast layout! Learn more

10-Day Weather Forecast

Advertisements
Track Severe Weather on mobile